Time;durP1;ratioP1;P1;durP2;ratioP2;P2;SDS_P1;SDS_P2;PMS_P1;PMS_P2;Temp;Humidity;BMP_temperature;BMP_pressure;BME280_temperature;BME280_humidity;BME280_pressure;Samples;Min_cycle;Max_cycle;Signal;HPM_P1;HPM_P2
2022/06/11 00:01:58;;;;;;;7.68;5.62;;;;;;;20.10;64.43;99904.84;4362082;32;35105;-67
2022/06/11 00:04:39;;;;;;;8.18;6.10;;;;;;;19.92;65.22;99903.84;4362054;32;33848;-67
2022/06/11 00:07:11;;;;;;;10.23;6.05;;;;;;;20.37;63.80;99901.22;4362270;32;34003;-67
2022/06/11 00:09:39;;;;;;;7.60;5.37;;;;;;;19.94;65.32;99898.84;4361693;32;34719;-66
2022/06/11 00:12:08;;;;;;;7.72;5.72;;;;;;;20.38;63.86;99886.28;4362304;32;34281;-68
2022/06/11 00:14:36;;;;;;;7.80;5.60;;;;;;;19.91;65.32;99893.94;4361977;32;33693;-67
2022/06/11 00:17:06;;;;;;;8.77;5.90;;;;;;;20.44;63.81;99890.56;4362166;32;34041;-67
2022/06/11 00:19:35;;;;;;;7.50;5.70;;;;;;;20.43;63.75;99895.28;4361481;32;34928;-70
2022/06/11 00:22:04;;;;;;;6.93;5.12;;;;;;;20.25;64.37;99893.47;4362154;32;34297;-70
2022/06/11 00:24:32;;;;;;;8.60;5.70;;;;;;;19.66;66.46;99902.37;4361623;32;33596;-70
2022/06/11 00:27:02;;;;;;;6.70;5.45;;;;;;;19.68;66.37;99896.59;4362027;32;34477;-69
2022/06/11 00:29:31;;;;;;;8.80;6.20;;;;;;;19.65;66.46;99899.94;4360723;32;34202;-66
2022/06/11 00:31:59;;;;;;;7.20;5.53;;;;;;;20.07;65.11;99903.50;4346878;33;34782;-67
2022/06/11 00:34:28;;;;;;;9.45;5.50;;;;;;;19.99;65.12;99891.28;4347293;33;33782;-63
2022/06/11 00:36:56;;;;;;;7.35;5.62;;;;;;;19.72;66.15;99894.87;4347112;33;34658;-67
2022/06/11 00:39:28;;;;;;;7.35;5.85;;;;;;;19.81;65.64;99894.97;4345631;33;34314;-66
2022/06/11 00:42:00;;;;;;;8.52;5.90;;;;;;;19.86;65.78;99906.69;4347102;33;34318;-64
2022/06/11 00:44:28;;;;;;;8.10;5.78;;;;;;;19.52;66.68;99906.25;4333643;33;33583;-66
2022/06/11 00:47:04;;;;;;;7.68;5.68;;;;;;;19.89;65.50;99908.00;4346892;33;33897;-67
2022/06/11 00:49:40;;;;;;;7.70;5.93;;;;;;;19.90;65.67;99911.59;4346880;33;34770;-65
2022/06/11 00:52:24;;;;;;;7.78;5.82;;;;;;;19.94;65.31;99909.87;4346782;33;34253;-66
2022/06/11 00:55:32;;;;;;;7.10;5.30;;;;;;;19.87;65.51;99911.09;4346675;33;34558;-66
2022/06/11 00:58:21;;;;;;;7.80;5.80;;;;;;;20.20;64.51;99905.44;4259826;33;33585;-66
2022/06/11 01:00:54;;;;;;;8.18;6.10;;;;;;;19.74;66.04;99905.56;4271956;33;34207;-70
2022/06/11 01:03:32;;;;;;;6.65;5.57;;;;;;;19.94;65.42;99909.87;4323284;33;34454;-66
2022/06/11 01:05:59;;;;;;;7.72;5.70;;;;;;;19.90;65.27;99903.34;4347196;33;33815;-68
2022/06/11 01:08:53;;;;;;;9.00;6.25;;;;;;;19.77;65.75;99897.53;4346197;33;34956;-70
2022/06/11 01:11:21;;;;;;;9.00;6.20;;;;;;;20.11;64.81;99907.28;4346936;33;34203;-71
2022/06/11 01:13:51;;;;;;;7.28;5.65;;;;;;;19.90;65.35;99909.66;4346827;33;35527;-70
2022/06/11 01:16:50;;;;;;;7.57;5.82;;;;;;;19.71;66.02;99904.25;4346720;33;33525;-67
2022/06/11 01:19:43;;;;;;;6.97;5.50;;;;;;;19.95;65.15;99906.78;4333121;33;33970;-66
2022/06/11 01:22:29;;;;;;;8.23;5.85;;;;;;;19.53;66.40;99896.88;4346834;33;33905;-66
2022/06/11 01:25:27;;;;;;;7.80;5.85;;;;;;;19.75;65.91;99898.97;4346568;33;34104;-66
2022/06/11 01:28:09;;;;;;;7.95;6.00;;;;;;;19.66;66.03;99896.06;4331427;33;33645;-67
2022/06/11 01:30:50;;;;;;;7.40;5.60;;;;;;;19.85;65.56;99904.25;4334969;32;34108;-68
2022/06/11 01:33:33;;;;;;;7.53;5.47;;;;;;;19.60;66.17;99900.03;4348205;32;34018;-68
2022/06/11 01:36:23;;;;;;;9.45;6.25;;;;;;;19.69;65.97;99906.47;4361593;32;34360;-66
2022/06/11 01:39:04;;;;;;;7.75;5.80;;;;;;;19.66;65.87;99905.12;4347035;32;33899;-66
2022/06/11 01:41:42;;;;;;;8.10;5.55;;;;;;;19.59;66.21;99904.75;4361406;32;34699;-72
2022/06/11 01:44:15;;;;;;;7.68;5.60;;;;;;;19.40;66.67;99918.56;4361668;32;34233;-71
2022/06/11 01:46:46;;;;;;;7.95;6.12;;;;;;;19.55;66.09;99909.22;4361260;32;34580;-66
2022/06/11 01:49:20;;;;;;;7.55;5.62;;;;;;;19.76;65.20;99908.81;4361184;32;33209;-69
2022/06/11 01:52:03;;;;;;;7.10;5.73;;;;;;;19.38;66.38;99920.00;4361155;32;34089;-65
2022/06/11 01:54:38;;;;;;;7.90;6.00;;;;;;;19.74;65.04;99917.41;4360626;32;34197;-71
2022/06/11 01:57:24;;;;;;;7.87;5.85;;;;;;;19.53;65.56;99914.22;4361304;32;35028;-68
2022/06/11 02:00:29;;;;;;;8.10;6.05;;;;;;;19.97;64.34;99915.56;4360855;32;33740;-70
2022/06/11 02:03:19;;;;;;;8.05;5.53;;;;;;;19.43;66.08;99917.94;4347929;32;33745;-69
2022/06/11 02:06:17;;;;;;;8.75;5.93;;;;;;;19.31;66.63;99928.66;4347640;32;35085;-69
2022/06/11 02:09:12;;;;;;;8.38;6.25;;;;;;;19.41;66.49;99925.69;4360725;32;34930;-71
2022/06/11 02:11:44;;;;;;;8.63;5.60;;;;;;;19.35;66.58;99920.59;4361259;32;33804;-66
2022/06/11 02:14:18;;;;;;;8.50;5.97;;;;;;;19.34;66.64;99924.47;4347261;32;34886;-65
2022/06/11 02:16:53;;;;;;;;;;;;;;;19.42;66.09;99924.59;4347950;32;34932;-66
2022/06/11 02:19:31;;;;;;;8.00;5.72;;;;;;;19.67;65.39;99922.47;4360550;32;34612;-69
2022/06/11 02:22:09;;;;;;;6.68;5.35;;;;;;;19.60;65.46;99924.81;4347625;32;33500;-66
2022/06/11 02:24:49;;;;;;;8.57;6.05;;;;;;;19.67;65.34;99925.22;4347072;32;34015;-71
2022/06/11 02:27:22;;;;;;;7.85;5.87;;;;;;;19.27;66.40;99927.63;4347515;32;34559;-68
2022/06/11 02:29:52;;;;;;;8.23;5.87;;;;;;;19.57;65.35;99926.25;4347331;32;34903;-66
2022/06/11 02:32:22;;;;;;;7.32;5.40;;;;;;;19.32;66.06;99927.53;4345837;32;33792;-68
2022/06/11 02:34:54;;;;;;;8.32;5.40;;;;;;;19.64;64.88;99926.66;4360449;32;34897;-68
2022/06/11 02:37:26;;;;;;;8.25;5.80;;;;;;;19.53;65.31;99932.66;4360413;32;34052;-67
2022/06/11 02:39:58;;;;;;;7.68;5.75;;;;;;;19.58;65.00;99922.34;4360321;32;35019;-66
2022/06/11 02:42:26;;;;;;;8.25;6.30;;;;;;;19.54;65.14;99934.28;4347266;32;34286;-70
2022/06/11 02:44:54;;;;;;;7.45;5.32;;;;;;;19.41;65.56;99933.13;4360469;32;33765;-71
2022/06/11 02:47:21;;;;;;;8.15;5.50;;;;;;;19.28;65.94;99945.75;4360731;32;33975;-66
2022/06/11 02:49:50;;;;;;;8.85;5.87;;;;;;;19.36;65.81;99950.56;4360215;32;34740;-66
2022/06/11 02:52:20;;;;;;;7.85;5.82;;;;;;;19.73;64.37;99943.31;4360258;32;34352;-71
2022/06/11 02:54:49;;;;;;;8.55;5.78;;;;;;;19.48;65.03;99952.81;4360072;32;34037;-69
2022/06/11 02:57:21;;;;;;;8.25;6.05;;;;;;;19.26;65.84;99954.31;4360441;32;35033;-71
2022/06/11 02:59:50;;;;;;;8.88;6.20;;;;;;;19.49;65.10;99959.16;4359867;32;35013;-68
2022/06/11 03:02:18;;;;;;;7.97;5.85;;;;;;;19.27;65.81;99953.19;4361241;32;33849;-68
2022/06/11 03:04:46;;;;;;;8.45;5.95;;;;;;;19.47;65.07;99954.75;4362438;32;34847;-65
2022/06/11 03:07:14;;;;;;;7.95;5.57;;;;;;;19.76;63.97;99952.88;4362416;32;34809;-65
2022/06/11 03:09:43;;;;;;;8.27;6.10;;;;;;;19.50;64.38;99960.78;4362362;32;35084;-66
2022/06/11 03:12:12;;;;;;;8.65;6.40;;;;;;;19.61;64.39;99963.06;4362458;32;33446;-69
2022/06/11 03:14:41;;;;;;;7.95;6.35;;;;;;;19.88;63.29;99954.00;4362555;32;34668;-66
2022/06/11 03:17:12;;;;;;;7.95;6.40;;;;;;;19.47;64.67;99951.19;4349150;32;34369;-70
2022/06/11 03:19:40;;;;;;;8.27;6.20;;;;;;;19.53;64.55;99949.97;4348649;32;34405;-66
2022/06/11 03:22:07;;;;;;;8.32;5.60;;;;;;;19.56;64.60;99956.81;4362418;32;33475;-65
2022/06/11 03:24:36;;;;;;;10.40;6.55;;;;;;;19.43;64.98;99952.91;4362221;32;34762;-66
2022/06/11 03:27:04;;;;;;;7.37;5.87;;;;;;;19.57;64.72;99952.97;4362471;32;35202;-67
2022/06/11 03:29:32;;;;;;;9.40;6.50;;;;;;;19.42;64.82;99956.81;4362317;32;35122;-71
2022/06/11 03:32:00;;;;;;;8.57;5.93;;;;;;;19.34;65.19;99961.06;4360483;32;34157;-65
2022/06/11 03:34:27;;;;;;;9.55;6.37;;;;;;;19.24;65.79;99967.56;4362003;32;34770;-67
2022/06/11 03:36:57;;;;;;;9.00;6.72;;;;;;;19.19;66.23;99969.56;4362370;32;35089;-65
2022/06/11 03:39:24;;;;;;;8.50;6.30;;;;;;;19.09;66.83;99977.97;4362015;32;33850;-66
2022/06/11 03:41:53;;;;;;;8.57;6.55;;;;;;;19.23;66.45;99976.09;4362986;32;33245;-71
2022/06/11 03:44:21;;;;;;;9.13;6.65;;;;;;;19.11;66.90;99978.50;4362249;32;34632;-68
2022/06/11 03:46:49;;;;;;;9.00;6.30;;;;;;;19.12;66.87;99974.66;4361760;32;34036;-70
2022/06/11 03:49:17;;;;;;;8.82;6.37;;;;;;;19.41;65.64;99969.72;4361869;32;34050;-68
2022/06/11 03:51:45;;;;;;;9.80;6.50;;;;;;;19.24;66.74;99972.22;4362616;32;33737;-66
2022/06/11 03:54:14;;;;;;;8.43;6.43;;;;;;;19.47;66.17;99974.00;4361928;32;34159;-70
2022/06/11 03:56:43;;;;;;;8.18;6.60;;;;;;;19.15;67.26;99966.59;4362126;32;34306;-68
2022/06/11 03:59:11;;;;;;;8.00;5.68;;;;;;;18.68;69.43;99971.16;4361869;32;34262;-74
2022/06/11 04:01:39;;;;;;;8.32;6.37;;;;;;;19.00;68.10;99975.91;4348708;32;33997;-73
2022/06/11 04:04:10;;;;;;;10.48;6.80;;;;;;;18.82;68.89;99980.31;4362068;32;34089;-77
2022/06/11 04:06:41;;;;;;;8.27;6.20;;;;;;;19.05;68.40;99981.34;4362119;32;34347;-76
2022/06/11 04:09:14;;;;;;;7.93;6.10;;;;;;;19.51;68.23;99976.19;4361612;32;34326;-77
2022/06/11 04:11:42;;;;;;;9.05;6.10;;;;;;;19.59;69.79;99972.72;4360761;32;34442;-71
2022/06/11 04:14:10;;;;;;;7.80;5.80;;;;;;;20.39;65.32;99973.34;4360156;32;33953;-79
2022/06/11 04:16:42;;;;;;;8.35;5.50;;;;;;;20.90;63.05;99970.25;4360983;32;35263;-77
2022/06/11 04:19:16;;;;;;;7.47;5.62;;;;;;;21.17;62.94;99974.06;4361280;32;35005;-75
2022/06/11 04:21:44;;;;;;;7.70;5.60;;;;;;;21.26;62.99;99977.66;4348608;32;33370;-72
2022/06/11 04:24:12;;;;;;;6.40;5.15;;;;;;;21.73;61.91;99968.19;4347904;32;33911;-69
2022/06/11 04:26:43;;;;;;;6.55;5.28;;;;;;;22.07;59.80;99960.06;4347960;32;33889;-74
2022/06/11 04:29:13;;;;;;;6.07;4.80;;;;;;;22.06;59.81;99963.94;4359818;32;34217;-73
2022/06/11 04:31:41;;;;;;;8.40;4.68;;;;;;;22.56;57.61;99961.97;4342046;32;79235;-74
2022/06/11 04:34:11;;;;;;;5.90;4.80;;;;;;;22.81;57.06;99966.69;4359733;32;33965;-70
2022/06/11 04:36:40;;;;;;;6.93;5.12;;;;;;;23.01;55.69;99968.03;4347513;32;35143;-76
2022/06/11 04:39:08;;;;;;;6.80;4.70;;;;;;;23.00;56.37;99968.31;4347793;32;34874;-73
2022/06/11 04:41:36;;;;;;;7.12;5.12;;;;;;;23.06;56.51;99970.59;4340350;33;34274;-73
2022/06/11 04:44:05;;;;;;;6.25;5.10;;;;;;;23.34;54.66;99970.25;4346836;33;33574;-76
2022/06/11 04:46:32;;;;;;;7.62;5.07;;;;;;;22.72;58.12;99975.00;4344574;32;33807;-74
2022/06/11 04:49:00;;;;;;;6.35;4.80;;;;;;;22.26;58.21;99973.62;4360763;32;34219;-74
2022/06/11 04:51:29;;;;;;;6.53;4.97;;;;;;;23.02;56.02;99979.91;4361322;32;33476;-70
2022/06/11 04:53:56;;;;;;;7.28;5.25;;;;;;;22.99;57.04;99991.59;4361712;32;34656;-78
2022/06/11 04:56:27;;;;;;;7.65;5.22;;;;;;;23.07;56.59;99991.63;4362742;32;34241;-79
2022/06/11 04:58:56;;;;;;;6.90;4.80;;;;;;;23.08;56.73;99989.66;4362546;32;34845;-70
2022/06/11 05:01:30;;;;;;;8.20;5.20;;;;;;;22.96;57.05;99990.31;4348114;32;33190;-79
2022/06/11 05:03:58;;;;;;;6.43;5.10;;;;;;;22.65;57.67;99987.69;4362418;32;34897;-71
2022/06/11 05:06:31;;;;;;;6.65;4.80;;;;;;;22.85;57.16;99989.81;4362356;32;34167;-74
2022/06/11 05:08:59;;;;;;;7.12;5.25;;;;;;;22.26;58.09;99995.72;4349168;32;35020;-81
2022/06/11 05:11:27;;;;;;;6.62;4.93;;;;;;;22.07;58.95;100001.50;4362240;32;33798;-73
2022/06/11 05:13:54;;;;;;;8.10;5.70;;;;;;;22.67;57.06;100002.81;4362157;32;33775;-75
2022/06/11 05:16:22;;;;;;;6.30;4.95;;;;;;;21.80;58.65;100012.78;4362343;32;34201;-73
2022/06/11 05:18:50;;;;;;;8.63;5.45;;;;;;;21.61;61.13;100007.47;4349385;32;34294;-73
2022/06/11 05:21:18;;;;;;;6.35;5.30;;;;;;;21.81;60.29;100012.44;4360487;32;33710;-74
2022/06/11 05:23:45;;;;;;;6.22;5.28;;;;;;;22.11;58.92;100015.50;4348906;32;33915;-73
2022/06/11 05:26:18;;;;;;;8.95;5.53;;;;;;;22.20;58.80;100015.50;4362203;32;35089;-74
2022/06/11 05:28:46;;;;;;;7.05;5.45;;;;;;;21.78;60.13;100015.84;4340968;33;35153;-73
2022/06/11 05:31:13;;;;;;;7.60;4.57;;;;;;;21.31;61.42;100018.94;4347663;33;33921;-74
2022/06/11 05:33:41;;;;;;;6.57;5.43;;;;;;;21.95;59.63;100019.81;4347712;33;33964;-74
2022/06/11 05:36:10;;;;;;;7.55;5.68;;;;;;;22.18;58.88;100018.62;4333980;33;33953;-75
2022/06/11 05:38:37;;;;;;;7.12;5.30;;;;;;;21.40;61.35;100015.41;4334189;33;34852;-80
2022/06/11 05:41:05;;;;;;;7.10;5.60;;;;;;;21.75;60.67;100021.16;4347431;33;33502;-74
2022/06/11 05:43:32;;;;;;;9.15;5.82;;;;;;;21.56;61.25;100024.19;4333923;33;33977;-78
2022/06/11 05:46:09;;;;;;;9.80;5.90;;;;;;;22.03;59.76;100024.56;4333869;33;35257;-77
2022/06/11 05:48:42;;;;;;;6.82;5.60;;;;;;;22.06;59.68;100021.97;4347477;33;34262;-77
2022/06/11 05:51:15;;;;;;;7.97;5.60;;;;;;;21.50;60.03;100024.28;4346989;33;34397;-73
2022/06/11 05:53:49;;;;;;;7.37;5.57;;;;;;;21.52;61.21;100028.69;4334584;33;34034;-73
2022/06/11 05:56:17;;;;;;;6.65;5.47;;;;;;;21.92;60.31;100019.34;4333729;33;34243;-74
2022/06/11 05:58:55;;;;;;;7.12;5.30;;;;;;;22.02;59.65;100025.69;4347140;33;34050;-73
2022/06/11 06:01:33;;;;;;;7.07;5.32;;;;;;;21.97;61.24;100028.62;4347088;33;33492;-74
2022/06/11 06:04:01;;;;;;;6.97;5.35;;;;;;;21.29;63.04;100036.94;4347280;33;33973;-74
2022/06/11 06:06:28;;;;;;;7.75;5.57;;;;;;;21.00;64.55;100045.66;4346829;33;34173;-75
2022/06/11 06:08:56;;;;;;;7.57;5.18;;;;;;;22.10;60.92;100039.56;4347329;33;34362;-72
2022/06/11 06:11:25;;;;;;;7.40;5.60;;;;;;;22.76;58.50;100040.72;4347140;33;34284;-69
2022/06/11 06:13:56;;;;;;;6.85;5.85;;;;;;;23.05;56.49;100040.94;4358122;32;33563;-70
2022/06/11 06:16:26;;;;;;;6.80;4.90;;;;;;;23.27;57.18;100042.72;4361596;32;35094;-70
2022/06/11 06:18:55;;;;;;;8.68;5.80;;;;;;;23.85;54.88;100039.72;4361709;32;34973;-70
2022/06/11 06:21:26;;;;;;;6.70;5.32;;;;;;;23.76;57.41;100045.28;4348509;32;33497;-70
2022/06/11 06:23:53;;;;;;;5.68;4.72;;;;;;;24.71;53.04;100049.59;4361789;32;33834;-70
2022/06/11 06:26:21;;;;;;;7.47;5.10;;;;;;;25.34;52.11;100038.50;4361719;32;34281;-72
2022/06/11 06:28:50;;;;;;;5.22;4.25;;;;;;;25.39;51.08;100029.16;4348003;32;33992;-69
2022/06/11 06:31:17;;;;;;;5.45;4.45;;;;;;;25.32;50.24;100026.13;4348350;32;33731;-71
2022/06/11 06:33:46;;;;;;;6.45;4.10;;;;;;;25.44;52.87;100017.81;4361480;32;33952;-70
2022/06/11 06:36:14;;;;;;;200.32;133.55;;;;;;;25.63;50.84;100019.28;4360643;32;34153;-68
2022/06/11 06:38:43;;;;;;;6.75;5.57;;;;;;;25.94;52.00;100027.09;4363264;32;34179;-66
2022/06/11 06:41:11;;;;;;;5.32;4.07;;;;;;;26.07;48.80;100031.53;4363565;32;33743;-67
2022/06/11 06:43:39;;;;;;;7.40;3.95;;;;;;;26.53;49.03;100028.62;4363318;32;33811;-68
2022/06/11 06:46:06;;;;;;;4.90;3.75;;;;;;;27.03;48.47;100029.38;4363343;32;35029;-67
2022/06/11 06:48:34;;;;;;;5.15;4.22;;;;;;;25.86;47.53;100036.34;4363668;32;35116;-67
2022/06/11 06:51:02;;;;;;;4.80;3.97;;;;;;;27.08;46.28;100040.25;4363149;32;33714;-67
2022/06/11 06:53:29;;;;;;;4.75;3.92;;;;;;;27.49;44.21;100036.25;4363663;32;34668;-68
2022/06/11 06:55:57;;;;;;;4.78;3.80;;;;;;;27.00;45.64;100040.03;4363511;32;34790;-68
2022/06/11 06:58:25;;;;;;;5.47;4.10;;;;;;;27.08;45.90;100041.03;4363055;32;34989;-67
2022/06/11 07:00:52;;;;;;;6.28;4.40;;;;;;;27.42;45.96;100041.66;4363418;32;33646;-68
2022/06/11 07:03:20;;;;;;;4.72;3.80;;;;;;;27.71;44.22;100032.09;4363531;32;33904;-68
2022/06/11 07:05:49;;;;;;;4.90;3.92;;;;;;;28.11;45.69;100047.09;4363032;32;35144;-67
2022/06/11 07:08:17;;;;;;;5.12;4.00;;;;;;;28.67;42.04;100030.09;4352769;32;34330;-73
2022/06/11 07:10:51;;;;;;;5.10;3.95;;;;;;;28.46;43.08;100035.97;4348693;33;34358;-67
2022/06/11 07:13:20;;;;;;;4.00;3.58;;;;;;;26.62;47.50;100040.47;4348509;33;34921;-66
2022/06/11 07:15:49;;;;;;;4.85;3.72;;;;;;;27.19;47.11;100035.78;4348785;33;34253;-66
2022/06/11 07:18:25;;;;;;;4.82;3.65;;;;;;;27.93;45.72;100041.88;4348444;33;35146;-66
2022/06/11 07:20:54;;;;;;;4.70;3.97;;;;;;;28.82;41.51;100040.41;4348323;33;34740;-66
2022/06/11 07:23:30;;;;;;;6.68;3.75;;;;;;;28.78;42.52;100035.94;4348679;33;34308;-67
2022/06/11 07:25:59;;;;;;;4.75;3.70;;;;;;;28.66;43.82;100034.09;4335309;33;35151;-67
2022/06/11 07:28:33;;;;;;;4.72;3.80;;;;;;;28.78;43.19;100038.72;4348342;33;34430;-66
2022/06/11 07:31:01;;;;;;;5.50;3.72;;;;;;;28.29;45.03;100031.56;4348188;33;33702;-67
2022/06/11 07:33:28;;;;;;;6.15;4.07;;;;;;;28.75;43.46;100037.47;4355442;32;33827;-69
2022/06/11 07:35:56;;;;;;;4.75;3.70;;;;;;;27.90;44.88;100031.41;4362875;32;34311;-68
2022/06/11 07:38:28;;;;;;;5.32;3.60;;;;;;;27.57;44.86;100026.94;4350078;32;34354;-68
2022/06/11 07:40:56;;;;;;;4.90;3.70;;;;;;;27.71;47.02;100032.09;4363302;32;34517;-68
2022/06/11 07:43:23;;;;;;;5.45;3.97;;;;;;;27.96;44.97;100034.75;4363291;32;34011;-68
2022/06/11 07:45:51;;;;;;;5.00;4.20;;;;;;;27.70;45.89;100036.03;4363104;32;35106;-67
2022/06/11 07:48:19;;;;;;;6.93;4.43;;;;;;;27.76;43.91;100031.03;4362855;32;34272;-67
2022/06/11 07:50:50;;;;;;;5.30;4.22;;;;;;;27.65;44.68;100024.38;4363174;32;33685;-68
2022/06/11 07:53:19;;;;;;;5.55;4.25;;;;;;;27.55;47.09;100036.84;4363564;32;33934;-67
2022/06/11 07:55:50;;;;;;;8.27;3.80;;;;;;;26.85;49.67;100039.97;4363363;32;34311;-66
2022/06/11 07:58:21;;;;;;;5.45;3.97;;;;;;;27.65;47.02;100035.50;4362757;32;34473;-67
2022/06/11 08:00:50;;;;;;;5.32;4.30;;;;;;;28.05;45.12;100045.72;4363130;32;33676;-66
2022/06/11 08:03:19;;;;;;;5.87;4.22;;;;;;;27.59;46.98;100043.31;4361513;32;34337;-68
2022/06/11 08:05:47;;;;;;;4.50;3.60;;;;;;;27.83;46.13;100036.78;4361838;32;32942;-65
2022/06/11 08:08:16;;;;;;;5.15;4.00;;;;;;;27.08;46.93;100040.25;4347453;32;34278;-66
2022/06/11 08:10:44;;;;;;;5.57;3.95;;;;;;;27.78;45.85;100039.84;4347137;33;33493;-66
2022/06/11 08:13:12;;;;;;;6.75;3.70;;;;;;;26.70;46.50;100030.37;4333507;33;34844;-66
2022/06/11 08:15:44;;;;;;;5.50;4.28;;;;;;;27.00;48.84;100028.09;4347068;33;34135;-67
2022/06/11 08:18:12;;;;;;;5.28;3.65;;;;;;;27.17;50.93;100033.37;4346903;33;34193;-68
2022/06/11 08:20:40;;;;;;;5.43;3.92;;;;;;;27.07;47.77;100033.06;4347118;33;33101;-65
2022/06/11 08:23:09;;;;;;;5.87;4.53;;;;;;;27.00;49.07;100028.91;4346616;33;34950;-67
2022/06/11 08:25:37;;;;;;;5.78;4.10;;;;;;;27.32;48.46;100031.00;4346731;33;34294;-67
2022/06/11 08:28:06;;;;;;;4.50;3.53;;;;;;;27.49;46.54;100027.91;4347182;33;34190;-66
2022/06/11 08:30:34;;;;;;;5.85;3.72;;;;;;;27.88;44.93;100028.16;4347063;33;33464;-66
2022/06/11 08:33:02;;;;;;;4.80;3.67;;;;;;;28.09;45.57;100027.91;4346725;33;34851;-66
2022/06/11 08:35:31;;;;;;;6.05;3.50;;;;;;;28.34;46.77;100033.31;4346286;33;35109;-65
2022/06/11 08:37:59;;;;;;;5.22;3.90;;;;;;;27.81;43.50;100022.38;4346511;33;34224;-67
2022/06/11 08:40:29;;;;;;;5.53;4.20;;;;;;;27.48;46.27;100026.31;4346704;33;33682;-74
2022/06/11 08:43:25;;;;;;;5.00;3.75;;;;;;;28.02;46.61;100022.97;4346692;33;34613;-75
2022/06/11 08:46:04;;;;;;;5.57;4.25;;;;;;;28.10;45.73;100031.50;4346642;33;34103;-69
2022/06/11 08:48:59;;;;;;;6.12;4.25;;;;;;;28.11;46.81;100027.56;4346909;33;33882;-67
2022/06/11 08:51:56;;;;;;;4.93;3.92;;;;;;;27.95;46.14;100022.78;4332729;33;33747;-69
2022/06/11 08:54:27;;;;;;;5.62;4.05;;;;;;;28.36;44.91;100019.81;4326199;33;34017;-68
2022/06/11 08:57:19;;;;;;;5.35;4.22;;;;;;;28.65;43.95;100017.69;4346712;33;33748;-67
2022/06/11 09:00:12;;;;;;;7.85;4.32;;;;;;;27.86;46.76;100010.19;4347232;33;33948;-72
2022/06/11 09:03:10;;;;;;;5.47;3.83;;;;;;;27.29;47.32;100018.59;4347792;33;33642;-69
2022/06/11 09:05:49;;;;;;;5.70;3.50;;;;;;;27.31;47.19;100015.47;4333746;33;34351;-73
2022/06/11 09:08:21;;;;;;;4.93;3.92;;;;;;;28.16;44.63;100016.91;4347840;33;34371;-69
2022/06/11 09:11:22;;;;;;;5.07;4.07;;;;;;;28.15;44.55;100006.94;4333892;33;34077;-76
2022/06/11 09:14:13;;;;;;;5.82;3.78;;;;;;;28.42;45.30;100018.31;4347065;33;33883;-75
2022/06/11 09:17:06;;;;;;;7.00;4.22;;;;;;;28.30;45.76;100008.09;4332770;33;33677;-73
2022/06/11 09:19:58;;;;;;;4.73;3.90;;;;;;;28.08;45.20;100017.94;4347479;33;34005;-73
2022/06/11 09:22:34;;;;;;;4.85;4.03;;;;;;;27.96;45.89;100015.22;4347271;33;34268;-70
2022/06/11 09:25:21;;;;;;;4.85;3.60;;;;;;;28.31;46.33;100011.69;4347640;33;33714;-71
2022/06/11 09:28:20;;;;;;;4.65;3.85;;;;;;;28.53;44.97;100015.81;4347787;33;34091;-77
2022/06/11 09:31:12;;;;;;;5.87;4.03;;;;;;;28.45;43.00;100017.63;4324104;33;33939;-75
2022/06/11 09:33:48;;;;;;;5.20;3.78;;;;;;;27.75;43.34;100007.09;4347409;33;33780;-75
2022/06/11 09:36:33;;;;;;;5.85;4.18;;;;;;;27.39;45.72;100009.75;4333633;33;33566;-72
2022/06/11 09:39:32;;;;;;;5.62;3.55;;;;;;;28.15;45.33;100017.31;4347141;33;33799;-72
2022/06/11 09:42:24;;;;;;;4.57;3.50;;;;;;;27.93;44.71;100000.03;4319345;33;33871;-73
2022/06/11 09:45:00;;;;;;;4.07;3.58;;;;;;;28.24;43.80;99998.38;4346773;33;34509;-76
2022/06/11 09:47:47;;;;;;;4.78;3.83;;;;;;;27.97;45.89;100003.72;4333958;33;33760;-71
2022/06/11 09:50:20;;;;;;;4.82;3.78;;;;;;;27.42;43.86;100008.22;4334159;33;34795;-73
2022/06/11 09:52:58;;;;;;;4.28;3.58;;;;;;;26.90;46.30;100003.53;4347274;33;34139;-72
2022/06/11 09:55:49;;;;;;;5.75;4.18;;;;;;;27.44;44.59;99991.16;4347344;33;34298;-73
2022/06/11 09:58:32;;;;;;;11.95;4.00;;;;;;;27.25;44.82;99997.38;4344492;32;33966;-71
2022/06/11 10:01:03;;;;;;;5.40;3.80;;;;;;;27.85;44.63;100005.75;4343140;32;34822;-68
2022/06/11 10:03:35;;;;;;;4.57;3.87;;;;;;;27.81;45.39;99997.28;4332106;33;35143;-68
2022/06/11 10:06:05;;;;;;;5.35;4.07;;;;;;;28.15;43.24;99995.78;4326934;33;33975;-69
2022/06/11 10:09:02;;;;;;;4.75;3.75;;;;;;;27.76;43.93;99998.38;4332745;33;33496;-69
2022/06/11 10:11:36;;;;;;;3.90;3.47;;;;;;;27.91;43.55;99994.00;4328716;33;33591;-71
2022/06/11 10:14:28;;;;;;;4.75;3.97;;;;;;;27.92;45.55;100001.19;4332891;33;34314;-71
2022/06/11 10:17:02;;;;;;;4.68;3.90;;;;;;;27.98;43.39;99999.75;4335558;33;34253;-69
2022/06/11 10:19:36;;;;;;;;;;;;;;;27.93;44.33;99999.22;4348060;33;33760;-68
2022/06/11 10:22:31;;;;;;;7.60;4.10;;;;;;;28.14;42.13;100001.72;4346931;33;34760;-68
2022/06/11 10:25:02;;;;;;;4.65;3.72;;;;;;;26.80;46.07;99990.91;4347751;33;33601;-72
2022/06/11 10:27:37;;;;;;;5.60;3.37;;;;;;;27.22;46.25;99992.53;4347813;33;33842;-70
2022/06/11 10:30:43;;;;;;;7.37;3.60;;;;;;;27.56;44.21;99997.47;4334113;33;33298;-73
2022/06/11 10:33:35;;;;;;;4.87;3.83;;;;;;;27.33;45.48;100000.03;4325856;33;34794;-70
2022/06/11 10:36:08;;;;;;;5.22;3.87;;;;;;;27.06;46.55;99986.88;4341916;33;33905;-68
2022/06/11 10:38:59;;;;;;;4.20;3.50;;;;;;;27.59;46.20;99985.59;4335211;33;34868;-68
2022/06/11 10:41:37;;;;;;;4.65;3.60;;;;;;;27.34;45.13;99979.38;4334081;33;33306;-69
2022/06/11 10:44:35;;;;;;;5.03;3.50;;;;;;;27.63;44.05;99980.13;4333936;33;33892;-70
2022/06/11 10:47:16;;;;;;;5.97;3.60;;;;;;;27.06;45.89;99987.69;4334148;33;34274;-70
2022/06/11 10:49:45;;;;;;;5.05;2.90;;;;;;;27.57;43.64;99985.13;4334269;33;33688;-70
2022/06/11 10:52:55;;;;;;;4.80;3.70;;;;;;;26.87;47.67;99984.72;4334223;33;33365;-72
2022/06/11 10:55:28;;;;;;;5.20;3.80;;;;;;;27.07;47.11;99986.53;4327538;33;34830;-68
2022/06/11 10:57:56;;;;;;;4.15;3.35;;;;;;;26.73;47.01;99985.94;4344019;32;33900;-71
2022/06/11 11:00:30;;;;;;;4.18;3.50;;;;;;;27.14;45.47;99983.94;4344742;32;34253;-66
2022/06/11 11:03:02;;;;;;;5.10;3.72;;;;;;;26.39;45.92;99978.91;4350271;32;33646;-69
2022/06/11 11:06:05;;;;;;;4.80;3.53;;;;;;;26.47;46.12;99985.50;4350141;32;34790;-69
2022/06/11 11:08:34;;;;;;;4.90;3.47;;;;;;;26.56;45.59;99977.87;4363320;32;33165;-70
2022/06/11 11:11:02;;;;;;;3.83;3.00;;;;;;;26.75;44.24;99982.81;4349790;32;33886;-71
2022/06/11 11:13:39;;;;;;;3.95;3.20;;;;;;;26.97;43.36;99975.88;4349147;32;33639;-72
2022/06/11 11:16:12;;;;;;;3.85;3.17;;;;;;;26.71;45.12;99976.31;4336775;33;34003;-73
2022/06/11 11:19:09;;;;;;;4.18;3.37;;;;;;;27.00;44.68;99973.22;4357321;32;34428;-68
2022/06/11 11:21:54;;;;;;;4.15;3.30;;;;;;;26.64;45.52;99981.69;4334779;33;34438;-80
2022/06/11 11:24:22;;;;;;;;;;;;;;;26.80;45.06;99972.25;4348293;33;33545;-66
2022/06/11 11:26:53;;;;;;;4.12;3.03;;;;;;;26.46;43.89;99964.41;4335112;33;35256;-72
2022/06/11 11:29:28;;;;;;;4.50;3.22;;;;;;;26.80;45.58;99963.06;4347856;33;34928;-74
2022/06/11 11:32:01;;;;;;;4.60;3.80;;;;;;;26.74;47.77;99965.31;4348322;33;34303;-71
2022/06/11 11:34:32;;;;;;;4.90;3.33;;;;;;;26.68;45.30;99957.56;4346441;33;33804;-71
2022/06/11 11:37:31;;;;;;;4.25;3.22;;;;;;;27.35;44.55;99957.88;4348198;33;33473;-69
2022/06/11 11:40:02;;;;;;;3.60;3.00;;;;;;;27.05;44.33;99958.22;4334001;33;34778;-69
2022/06/11 11:42:35;;;;;;;3.95;3.30;;;;;;;27.20;44.31;99949.09;4348333;33;34924;-75
2022/06/11 11:45:28;;;;;;;5.57;3.60;;;;;;;26.91;44.61;99953.06;4347346;32;33752;-68
2022/06/11 11:48:02;;;;;;;4.60;3.55;;;;;;;27.08;47.60;99946.34;4322047;33;33773;-68
2022/06/11 11:50:40;;;;;;;5.85;3.30;;;;;;;27.17;44.67;99947.03;4334950;33;33894;-69
2022/06/11 11:53:17;;;;;;;4.75;3.10;;;;;;;27.04;42.73;99942.69;4347568;33;34766;-70
2022/06/11 11:56:00;;;;;;;4.10;2.90;;;;;;;27.49;43.23;99943.50;4335007;33;33626;-69
2022/06/11 11:58:38;;;;;;;4.05;3.03;;;;;;;27.87;42.34;99940.13;4348446;32;34702;-69
2022/06/11 12:01:14;;;;;;;4.80;3.25;;;;;;;28.37;41.15;99943.28;4348126;32;34146;-68
2022/06/11 12:04:05;;;;;;;5.43;3.25;;;;;;;27.90;41.74;99936.59;4334325;33;34311;-70
2022/06/11 12:06:44;;;;;;;3.45;2.92;;;;;;;27.64;42.02;99939.91;4334933;33;33604;-70